createdAt,value
2023-04-26T00:00:00.725Z,57.59
2023-04-26T00:02:27.167Z,57.57
2023-04-26T00:04:53.813Z,57.25
2023-04-26T00:07:20.292Z,57.35
2023-04-26T00:09:46.589Z,57.75
2023-04-26T00:12:12.939Z,57.16
2023-04-26T00:14:39.269Z,57.98
2023-04-26T00:17:05.594Z,56.90
2023-04-26T00:19:31.906Z,56.79
2023-04-26T00:21:58.205Z,57.75
2023-04-26T00:24:24.535Z,57.62
2023-04-26T00:26:50.841Z,57.91
2023-04-26T00:29:17.171Z,57.87
2023-04-26T00:31:43.526Z,57.63
2023-04-26T00:34:09.874Z,57.23
2023-04-26T00:36:36.204Z,57.39
2023-04-26T00:39:02.514Z,58.81
2023-04-26T00:41:28.831Z,58.35
2023-04-26T00:43:55.191Z,58.30
2023-04-26T00:46:21.536Z,58.27
2023-04-26T00:48:47.927Z,58.21
2023-04-26T00:51:14.259Z,58.38
2023-04-26T00:53:40.576Z,58.44
2023-04-26T00:56:06.951Z,58.14
2023-04-26T00:58:33.435Z,58.65
2023-04-26T01:00:59.805Z,58.20
2023-04-26T01:03:26.285Z,58.30
2023-04-26T01:05:52.712Z,57.93
2023-04-26T01:08:19.048Z,57.52
2023-04-26T01:10:45.373Z,57.79
2023-04-26T01:13:11.682Z,57.58
2023-04-26T01:15:38.008Z,58.46
2023-04-26T01:18:04.335Z,59.02
2023-04-26T01:20:30.644Z,59.15
2023-04-26T01:22:57.039Z,58.15
2023-04-26T01:25:23.372Z,58.35
2023-04-26T01:27:49.689Z,57.79
2023-04-26T01:30:16.020Z,58.78
2023-04-26T01:32:42.377Z,58.45
2023-04-26T01:35:08.728Z,58.69
2023-04-26T01:37:35.057Z,58.70
2023-04-26T01:40:01.401Z,58.01
2023-04-26T01:42:27.761Z,58.66
2023-04-26T01:44:54.063Z,59.18
2023-04-26T01:47:20.374Z,58.41
2023-04-26T01:49:46.686Z,58.28
2023-04-26T01:52:13.003Z,57.54
2023-04-26T01:54:39.303Z,57.36
2023-04-26T01:57:05.601Z,58.14
2023-04-26T01:59:31.932Z,58.26
2023-04-26T02:01:58.363Z,58.15
2023-04-26T02:04:24.696Z,58.77
2023-04-26T02:06:51.027Z,59.53
2023-04-26T02:09:17.329Z,58.42
2023-04-26T02:11:43.633Z,58.92
2023-04-26T02:14:09.941Z,58.90
2023-04-26T02:16:36.314Z,59.36
2023-04-26T02:19:02.741Z,58.45
2023-04-26T02:21:30.166Z,58.61
2023-04-26T02:23:56.475Z,58.60
2023-04-26T02:26:22.800Z,58.67
2023-04-26T02:28:49.117Z,58.89
2023-04-26T02:31:15.461Z,58.39
2023-04-26T02:33:41.820Z,58.39
2023-04-26T02:36:08.132Z,58.73
2023-04-26T02:38:34.446Z,59.23
2023-04-26T02:41:00.766Z,59.13
2023-04-26T02:43:27.095Z,58.98
2023-04-26T02:45:53.488Z,60.41
2023-04-26T02:48:19.817Z,60.21
2023-04-26T02:50:46.160Z,61.24
2023-04-26T02:53:12.483Z,59.71
2023-04-26T02:55:38.807Z,59.55
2023-04-26T02:58:05.125Z,59.77
2023-04-26T03:00:31.457Z,60.08
2023-04-26T03:02:57.932Z,59.10
2023-04-26T03:05:24.349Z,58.95
2023-04-26T03:07:50.654Z,58.92
2023-04-26T03:10:16.957Z,59.65
2023-04-26T03:12:43.294Z,59.77
2023-04-26T03:15:09.639Z,59.27
2023-04-26T03:17:35.997Z,59.36
2023-04-26T03:20:02.851Z,59.57
2023-04-26T03:22:29.308Z,60.04
2023-04-26T03:24:55.615Z,60.19
2023-04-26T03:27:21.949Z,60.27
2023-04-26T03:29:48.251Z,60.04
2023-04-26T03:32:14.614Z,60.77
2023-04-26T03:34:40.959Z,60.25
2023-04-26T03:37:07.256Z,60.67
2023-04-26T03:39:33.581Z,60.61
2023-04-26T03:41:59.908Z,61.32
2023-04-26T03:44:26.320Z,61.13
2023-04-26T03:46:52.622Z,61.12
2023-04-26T03:49:18.932Z,61.38
2023-04-26T03:51:45.239Z,61.70
2023-04-26T03:54:11.575Z,61.28
2023-04-26T03:56:37.907Z,61.85
2023-04-26T03:59:04.230Z,61.06
2023-04-26T04:01:30.531Z,61.33
2023-04-26T04:03:57.011Z,61.29
2023-04-26T04:06:23.646Z,61.28
2023-04-26T04:08:50.191Z,61.88
2023-04-26T04:11:16.962Z,62.04
2023-04-26T04:13:43.298Z,61.94
2023-04-26T04:16:09.648Z,61.21
2023-04-26T04:18:35.978Z,61.05
2023-04-26T04:21:02.277Z,61.74
2023-04-26T04:23:28.612Z,61.98
2023-04-26T04:25:54.951Z,61.97
2023-04-26T04:28:21.297Z,62.03
2023-04-26T04:30:47.693Z,62.45
2023-04-26T04:33:14.101Z,61.93
2023-04-26T04:35:40.430Z,61.66
2023-04-26T04:38:06.760Z,63.44
2023-04-26T04:40:33.088Z,64.47
2023-04-26T04:42:59.395Z,61.67
2023-04-26T04:45:25.691Z,64.17
2023-04-26T04:47:52.025Z,61.82
2023-04-26T04:50:18.370Z,61.83
2023-04-26T04:52:44.693Z,60.47
2023-04-26T04:55:11.019Z,59.41
2023-04-26T04:57:37.340Z,58.93
2023-04-26T05:00:03.652Z,58.77
2023-04-26T05:02:30.154Z,59.27
2023-04-26T05:04:56.543Z,58.15
2023-04-26T05:07:24.416Z,58.03
2023-04-26T05:09:50.953Z,58.11
2023-04-26T05:12:17.278Z,57.61
2023-04-26T05:14:43.608Z,57.57
2023-04-26T05:17:09.934Z,58.87
2023-04-26T05:19:36.480Z,58.32
2023-04-26T05:22:02.831Z,58.48
2023-04-26T05:24:29.145Z,56.84
2023-04-26T05:26:55.441Z,56.92
2023-04-26T05:29:21.814Z,57.80
2023-04-26T05:31:48.143Z,58.54
2023-04-26T05:34:14.491Z,58.18
2023-04-26T05:36:40.811Z,58.01
2023-04-26T05:39:07.130Z,58.46
2023-04-26T05:41:33.461Z,58.05
2023-04-26T05:43:59.766Z,58.56
2023-04-26T05:46:26.165Z,58.78
2023-04-26T05:48:52.507Z,59.58
2023-04-26T05:51:18.835Z,59.49
2023-04-26T05:53:45.159Z,60.16
2023-04-26T05:56:11.466Z,59.99
2023-04-26T05:58:37.788Z,60.55
2023-04-26T06:01:04.097Z,60.75
2023-04-26T06:03:30.668Z,60.85
2023-04-26T06:05:57.292Z,60.64
2023-04-26T06:08:23.640Z,60.01
2023-04-26T06:10:49.976Z,59.95
2023-04-26T06:13:16.302Z,60.06
2023-04-26T06:15:42.615Z,60.94
2023-04-26T06:18:09.053Z,61.22
2023-04-26T06:20:35.400Z,60.80
2023-04-26T06:23:01.735Z,61.77
2023-04-26T06:25:28.054Z,61.67
2023-04-26T06:27:54.368Z,61.50
2023-04-26T06:30:20.697Z,62.25
2023-04-26T06:32:47.113Z,62.07
2023-04-26T06:35:13.468Z,62.49
2023-04-26T06:37:39.764Z,61.95
2023-04-26T06:40:06.083Z,61.60
2023-04-26T06:42:32.432Z,62.64
2023-04-26T06:44:58.754Z,61.68
2023-04-26T06:47:25.063Z,61.69
2023-04-26T06:49:51.400Z,61.42
2023-04-26T06:52:18.674Z,62.05
2023-04-26T06:54:56.121Z,61.60
2023-04-26T06:57:23.617Z,61.51
2023-04-26T06:59:50.127Z,61.37
2023-04-26T07:02:16.471Z,60.48
2023-04-26T07:04:43.097Z,60.21
2023-04-26T07:07:11.117Z,61.33
2023-04-26T07:09:39.268Z,61.25
2023-04-26T07:12:05.582Z,61.22
2023-04-26T07:14:31.931Z,60.87
2023-04-26T07:16:58.244Z,60.83
2023-04-26T07:19:24.600Z,60.94
2023-04-26T07:21:50.933Z,61.12
2023-04-26T07:24:17.258Z,60.27
2023-04-26T07:26:43.597Z,60.80
2023-04-26T07:29:09.920Z,61.48
2023-04-26T07:31:36.244Z,61.02
2023-04-26T07:34:02.573Z,60.60
2023-04-26T07:36:28.898Z,60.62
2023-04-26T07:38:55.211Z,61.09
2023-04-26T07:41:21.532Z,59.96
2023-04-26T07:43:47.851Z,60.86
2023-04-26T07:46:14.241Z,60.69
2023-04-26T07:48:40.630Z,60.70
2023-04-26T07:51:06.943Z,60.81
2023-04-26T07:53:33.255Z,60.48
2023-04-26T07:55:59.602Z,60.70
2023-04-26T07:58:25.949Z,59.52
2023-04-26T08:00:52.252Z,60.67
2023-04-26T08:03:18.710Z,59.67
2023-04-26T08:05:45.639Z,60.26
2023-04-26T08:08:12.055Z,59.38
2023-04-26T08:10:38.362Z,58.90
2023-04-26T08:13:04.717Z,58.35
2023-04-26T08:15:31.042Z,59.18
2023-04-26T08:17:57.467Z,59.27
2023-04-26T08:20:23.879Z,58.71
2023-04-26T08:22:50.246Z,59.29
2023-04-26T08:25:16.578Z,58.59
2023-04-26T08:27:42.895Z,58.88
2023-04-26T08:30:09.216Z,58.44
2023-04-26T08:32:35.571Z,59.67
2023-04-26T08:35:01.969Z,58.61
2023-04-26T08:37:29.403Z,58.33
2023-04-26T08:39:55.880Z,57.95
2023-04-26T08:42:22.188Z,57.56
2023-04-26T08:44:48.516Z,57.46
2023-04-26T08:47:14.839Z,56.61
2023-04-26T08:49:41.173Z,56.51
2023-04-26T08:52:07.497Z,55.88
2023-04-26T08:54:33.823Z,55.14
2023-04-26T08:57:00.144Z,54.33
2023-04-26T08:59:26.439Z,53.81
2023-04-26T09:01:52.815Z,55.53
2023-04-26T09:04:19.363Z,54.48
2023-04-26T09:06:45.866Z,54.87
2023-04-26T09:09:12.185Z,53.00
2023-04-26T09:11:38.487Z,53.78
2023-04-26T09:14:04.798Z,52.83
2023-04-26T09:16:31.133Z,53.25
2023-04-26T09:18:57.539Z,51.89
2023-04-26T09:21:23.844Z,52.04
2023-04-26T09:23:50.172Z,52.13
2023-04-26T09:26:16.500Z,51.57
2023-04-26T09:28:42.824Z,51.82
2023-04-26T09:31:09.725Z,51.14
2023-04-26T09:33:36.065Z,50.84
2023-04-26T09:36:02.363Z,49.56
2023-04-26T09:38:28.666Z,49.75
2023-04-26T09:40:55.020Z,48.93
2023-04-26T09:43:21.412Z,49.66
2023-04-26T09:45:47.760Z,49.14
2023-04-26T09:48:14.069Z,50.29
2023-04-26T09:50:40.377Z,49.46
2023-04-26T09:53:06.705Z,49.82
2023-04-26T09:55:35.260Z,49.27
2023-04-26T09:58:02.096Z,50.04
2023-04-26T10:00:28.447Z,49.13
2023-04-26T10:02:54.844Z,47.55
2023-04-26T10:05:21.236Z,46.28
2023-04-26T10:07:47.562Z,46.34
2023-04-26T10:10:14.008Z,46.71
2023-04-26T10:12:40.344Z,45.01
2023-04-26T10:15:06.656Z,46.05
2023-04-26T10:17:32.994Z,44.84
2023-04-26T10:19:59.362Z,45.33
2023-04-26T10:22:25.665Z,45.31
2023-04-26T10:24:51.990Z,43.84
2023-04-26T10:27:18.316Z,46.26
2023-04-26T10:29:44.641Z,44.75
2023-04-26T10:32:11.011Z,43.92
2023-04-26T10:34:37.333Z,44.80
2023-04-26T10:37:03.653Z,43.73
2023-04-26T10:39:29.964Z,46.63
2023-04-26T10:41:56.289Z,44.96
2023-04-26T10:44:22.598Z,43.09
2023-04-26T10:46:48.928Z,44.89
2023-04-26T10:49:15.248Z,44.33
2023-04-26T10:51:41.565Z,44.04
2023-04-26T10:54:07.885Z,43.43
2023-04-26T10:56:34.213Z,42.98
2023-04-26T10:59:00.554Z,42.44
2023-04-26T11:01:26.887Z,41.38
2023-04-26T11:03:53.489Z,44.01
2023-04-26T11:06:20.093Z,44.26
2023-04-26T11:08:46.413Z,42.91
2023-04-26T11:11:12.740Z,43.01
2023-04-26T11:13:39.079Z,42.68
2023-04-26T11:16:05.480Z,41.83
2023-04-26T11:18:31.878Z,41.95
2023-04-26T11:20:58.221Z,42.44
2023-04-26T11:23:24.673Z,40.88
2023-04-26T11:25:50.987Z,40.92
2023-04-26T11:28:17.303Z,42.05
2023-04-26T11:30:43.604Z,40.85
2023-04-26T11:33:09.930Z,40.26
2023-04-26T11:35:36.281Z,41.14
2023-04-26T11:38:02.609Z,40.99
2023-04-26T11:40:29.004Z,39.91
2023-04-26T11:42:55.325Z,39.69
2023-04-26T11:45:21.663Z,41.71
2023-04-26T11:47:48.042Z,41.23
2023-04-26T11:50:14.362Z,41.28
2023-04-26T11:52:40.662Z,42.11
2023-04-26T11:55:06.970Z,40.68
2023-04-26T11:57:33.368Z,40.90
2023-04-26T11:59:59.682Z,40.40
2023-04-26T12:02:26.153Z,40.80
2023-04-26T12:04:52.718Z,39.77
2023-04-26T12:07:19.144Z,42.48
2023-04-26T12:09:45.469Z,39.69
2023-04-26T12:12:11.807Z,38.30
2023-04-26T12:14:38.137Z,39.48
2023-04-26T12:17:04.532Z,38.64
2023-04-26T12:19:30.911Z,37.69
2023-04-26T12:21:57.295Z,38.56
2023-04-26T12:24:23.598Z,38.11
2023-04-26T12:26:49.912Z,39.03
2023-04-26T12:29:16.219Z,38.79
2023-04-26T12:31:42.568Z,38.33
2023-04-26T12:34:08.929Z,38.79
2023-04-26T12:36:35.273Z,39.92
2023-04-26T12:39:01.611Z,39.99
2023-04-26T12:41:27.947Z,39.59
2023-04-26T12:43:54.254Z,39.33
2023-04-26T12:46:20.619Z,40.76
2023-04-26T12:48:46.969Z,39.70
2023-04-26T12:51:13.289Z,40.29
2023-04-26T12:53:39.609Z,40.63
2023-04-26T12:56:06.128Z,39.88
2023-04-26T12:58:32.450Z,39.97
2023-04-26T13:00:58.785Z,38.77
2023-04-26T13:03:25.236Z,39.44
2023-04-26T13:05:51.642Z,38.96
2023-04-26T13:08:18.015Z,39.72
2023-04-26T13:10:44.333Z,38.01
2023-04-26T13:13:10.673Z,39.16
2023-04-26T13:15:37.006Z,38.00
2023-04-26T13:18:03.362Z,36.73
2023-04-26T13:20:30.950Z,37.11
2023-04-26T13:22:57.425Z,38.45
2023-04-26T13:25:23.756Z,37.49
2023-04-26T13:27:50.069Z,35.71
2023-04-26T13:30:16.372Z,36.10
2023-04-26T13:32:42.714Z,37.28
2023-04-26T13:35:09.167Z,37.07
2023-04-26T13:37:35.505Z,37.10
2023-04-26T13:40:01.852Z,36.31
2023-04-26T13:42:28.187Z,35.16
2023-04-26T13:44:54.539Z,36.68
2023-04-26T13:47:20.923Z,35.24
2023-04-26T13:49:47.322Z,36.65
2023-04-26T13:52:13.660Z,36.45
2023-04-26T13:54:40.000Z,34.81
2023-04-26T13:57:06.348Z,36.88
2023-04-26T13:59:32.665Z,35.45
2023-04-26T14:01:59.330Z,36.96
2023-04-26T14:04:26.094Z,36.79
2023-04-26T14:06:52.569Z,35.25
2023-04-26T14:09:18.892Z,36.21
2023-04-26T14:11:49.327Z,35.42
2023-04-26T14:14:20.465Z,31.95
2023-04-26T14:16:46.798Z,33.53
2023-04-26T14:19:13.125Z,34.31
2023-04-26T14:21:39.438Z,31.64
2023-04-26T14:24:05.758Z,33.53
2023-04-26T14:26:32.088Z,34.47
2023-04-26T14:28:58.398Z,32.91
2023-04-26T14:31:24.848Z,34.10
2023-04-26T14:33:51.197Z,34.54
2023-04-26T14:36:17.503Z,33.37
2023-04-26T14:38:43.802Z,33.32
2023-04-26T14:41:10.144Z,34.77
2023-04-26T14:43:36.480Z,34.58
2023-04-26T14:46:02.872Z,34.03
2023-04-26T14:48:29.220Z,34.89
2023-04-26T14:50:55.526Z,34.44
2023-04-26T14:53:21.849Z,33.66
2023-04-26T14:55:48.169Z,34.51
2023-04-26T14:58:14.621Z,35.44
2023-04-26T15:00:41.001Z,33.41
2023-04-26T15:03:07.446Z,34.41
2023-04-26T15:05:33.864Z,34.62
2023-04-26T15:08:00.328Z,34.40
2023-04-26T15:10:26.659Z,35.36
2023-04-26T15:12:52.981Z,34.94
2023-04-26T15:15:19.316Z,33.49
2023-04-26T15:17:45.679Z,32.69
2023-04-26T15:20:12.042Z,33.41
2023-04-26T15:22:39.025Z,33.58
2023-04-26T15:25:05.504Z,33.67
2023-04-26T15:27:31.809Z,32.51
2023-04-26T15:29:58.134Z,34.56
2023-04-26T15:32:24.496Z,33.26
2023-04-26T15:34:50.871Z,31.87
2023-04-26T15:37:17.211Z,32.64
2023-04-26T15:39:43.547Z,33.67
2023-04-26T15:42:09.929Z,34.96
2023-04-26T15:44:36.256Z,35.66
2023-04-26T15:47:02.618Z,33.88
2023-04-26T15:49:28.979Z,36.03
2023-04-26T15:51:55.309Z,36.62
2023-04-26T15:54:21.650Z,36.13
2023-04-26T15:56:48.007Z,37.00
2023-04-26T15:59:14.334Z,35.80
2023-04-26T16:01:40.668Z,34.08
2023-04-26T16:04:07.163Z,34.44
2023-04-26T16:06:33.672Z,35.34
2023-04-26T16:09:00.006Z,35.28
2023-04-26T16:11:26.378Z,35.18
2023-04-26T16:13:52.911Z,34.16
2023-04-26T16:16:19.324Z,35.06
2023-04-26T16:18:45.718Z,35.15
2023-04-26T16:21:12.020Z,34.82
2023-04-26T16:23:38.322Z,34.68
2023-04-26T16:26:04.646Z,35.62
2023-04-26T16:28:30.948Z,34.77
2023-04-26T16:30:57.295Z,35.29
2023-04-26T16:33:23.993Z,35.94
2023-04-26T16:35:50.647Z,35.19
2023-04-26T16:38:16.970Z,34.53
2023-04-26T16:40:43.301Z,34.85
2023-04-26T16:43:09.637Z,35.44
2023-04-26T16:45:35.941Z,36.16
2023-04-26T16:48:02.267Z,36.01
2023-04-26T16:50:28.611Z,36.69
2023-04-26T16:52:54.945Z,36.65
2023-04-26T16:55:21.260Z,37.28
2023-04-26T16:57:47.571Z,37.31
2023-04-26T17:00:13.895Z,36.99
2023-04-26T17:02:40.423Z,36.84
2023-04-26T17:05:07.080Z,37.11
2023-04-26T17:07:33.461Z,37.62
2023-04-26T17:09:59.780Z,36.76
2023-04-26T17:12:26.104Z,36.20
2023-04-26T17:14:52.407Z,37.07
2023-04-26T17:17:18.726Z,37.82
2023-04-26T17:19:45.036Z,37.29
2023-04-26T17:22:11.365Z,38.06
2023-04-26T17:24:37.672Z,38.53
2023-04-26T17:27:03.982Z,38.13
2023-04-26T17:29:30.310Z,38.26
2023-04-26T17:31:56.694Z,37.82
2023-04-26T17:34:23.075Z,38.25
2023-04-26T17:36:49.434Z,38.35
2023-04-26T17:39:15.747Z,37.93
2023-04-26T17:41:42.065Z,39.23
2023-04-26T17:44:08.373Z,38.38
2023-04-26T17:46:34.706Z,38.35
2023-04-26T17:49:01.039Z,39.71
2023-04-26T17:51:27.407Z,43.81
2023-04-26T17:53:53.740Z,44.29
2023-04-26T17:56:20.101Z,44.57
2023-04-26T17:58:46.415Z,43.01
2023-04-26T18:01:12.749Z,42.51
2023-04-26T18:03:39.274Z,41.14
2023-04-26T18:06:05.758Z,41.62
2023-04-26T18:08:32.094Z,40.08
2023-04-26T18:10:58.419Z,39.62
2023-04-26T18:13:24.744Z,38.81
2023-04-26T18:15:51.067Z,39.16
2023-04-26T18:18:17.537Z,39.00
2023-04-26T18:20:43.981Z,39.51
2023-04-26T18:23:10.315Z,39.08
2023-04-26T18:25:36.653Z,38.51
2023-04-26T18:28:02.975Z,39.04
2023-04-26T18:30:29.288Z,38.41
2023-04-26T18:32:55.678Z,39.72
2023-04-26T18:35:22.073Z,40.46
2023-04-26T18:37:48.427Z,41.84
2023-04-26T18:40:14.753Z,42.30
2023-04-26T18:42:41.089Z,43.39
2023-04-26T18:45:07.417Z,44.44
2023-04-26T18:47:33.753Z,45.71
2023-04-26T18:50:00.189Z,45.06
2023-04-26T18:52:26.532Z,45.02
2023-04-26T18:54:52.868Z,46.56
2023-04-26T18:57:19.172Z,45.14
2023-04-26T18:59:45.497Z,44.22
2023-04-26T19:02:11.925Z,44.52
2023-04-26T19:04:38.429Z,45.26
2023-04-26T19:07:04.894Z,46.18
2023-04-26T19:09:35.133Z,45.95
2023-04-26T19:12:09.495Z,45.31
2023-04-26T19:14:35.808Z,44.24
2023-04-26T19:17:02.148Z,44.04
2023-04-26T19:19:28.461Z,44.00
2023-04-26T19:21:54.771Z,44.42
2023-04-26T19:24:21.085Z,44.49
2023-04-26T19:26:47.397Z,45.76
2023-04-26T19:29:13.697Z,45.19
2023-04-26T19:31:40.062Z,45.32
2023-04-26T19:34:06.406Z,44.86
2023-04-26T19:36:32.746Z,45.29
2023-04-26T19:38:59.082Z,45.94
2023-04-26T19:41:25.389Z,46.45
2023-04-26T19:43:51.765Z,46.54
2023-04-26T19:46:18.174Z,47.70
2023-04-26T19:48:44.586Z,47.07
2023-04-26T19:51:10.921Z,47.09
2023-04-26T19:53:37.233Z,47.19
2023-04-26T19:56:03.568Z,46.20
2023-04-26T19:58:29.945Z,46.32
2023-04-26T20:00:56.299Z,46.50
2023-04-26T20:03:22.748Z,46.78
2023-04-26T20:05:49.223Z,46.63
2023-04-26T20:08:15.534Z,46.71
2023-04-26T20:10:41.867Z,46.78
2023-04-26T20:13:08.192Z,45.78
2023-04-26T20:15:34.515Z,46.66
2023-04-26T20:18:00.876Z,46.57
2023-04-26T20:20:27.245Z,46.26
2023-04-26T20:22:53.575Z,46.09
2023-04-26T20:25:20.035Z,46.11
2023-04-26T20:27:46.438Z,46.18
2023-04-26T20:30:12.753Z,45.75
2023-04-26T20:32:39.109Z,46.34
2023-04-26T20:35:05.458Z,46.29
2023-04-26T20:37:31.782Z,46.50
2023-04-26T20:39:58.103Z,47.24
2023-04-26T20:42:24.414Z,47.80
2023-04-26T20:44:50.745Z,47.50
2023-04-26T20:47:17.080Z,48.16
2023-04-26T20:49:43.512Z,48.34
2023-04-26T20:52:09.855Z,48.41
2023-04-26T20:54:36.158Z,48.30
2023-04-26T20:57:02.476Z,47.98
2023-04-26T20:59:28.787Z,48.65
2023-04-26T21:01:55.113Z,48.51
2023-04-26T21:04:21.695Z,48.49
2023-04-26T21:06:48.349Z,48.16
2023-04-26T21:09:14.671Z,49.22
2023-04-26T21:11:40.981Z,48.84
2023-04-26T21:14:07.291Z,49.01
2023-04-26T21:16:33.594Z,48.95
2023-04-26T21:18:59.919Z,48.61
2023-04-26T21:21:28.103Z,48.31
2023-04-26T21:23:54.646Z,48.41
2023-04-26T21:26:20.968Z,48.45
2023-04-26T21:28:47.264Z,48.50
2023-04-26T21:31:13.595Z,49.20
2023-04-26T21:33:39.970Z,48.68
2023-04-26T21:36:06.304Z,48.18
2023-04-26T21:38:32.622Z,48.61
2023-04-26T21:40:58.948Z,48.48
2023-04-26T21:43:25.281Z,48.58
2023-04-26T21:45:51.594Z,48.08
2023-04-26T21:48:17.907Z,49.03
2023-04-26T21:50:44.216Z,49.78
2023-04-26T21:53:10.517Z,50.37
2023-04-26T21:55:36.873Z,50.63
2023-04-26T21:58:03.223Z,51.45
2023-04-26T22:00:29.570Z,51.80
2023-04-26T22:02:56.058Z,51.35
2023-04-26T22:05:22.477Z,50.50
2023-04-26T22:07:48.777Z,50.63
2023-04-26T22:10:15.095Z,50.72
2023-04-26T22:12:41.421Z,51.17
2023-04-26T22:15:07.737Z,51.26
2023-04-26T22:17:34.128Z,51.92
2023-04-26T22:20:00.475Z,52.36
2023-04-26T22:22:26.798Z,52.10
2023-04-26T22:24:53.135Z,52.02
2023-04-26T22:27:19.444Z,52.26
2023-04-26T22:29:45.758Z,52.25
2023-04-26T22:32:12.200Z,52.15
2023-04-26T22:34:38.591Z,52.17
2023-04-26T22:37:19.778Z,52.30
2023-04-26T22:39:46.976Z,52.80
2023-04-26T22:42:13.284Z,53.03
2023-04-26T22:44:39.591Z,53.91
2023-04-26T22:47:05.900Z,54.26
2023-04-26T22:49:32.229Z,54.14
2023-04-26T22:52:07.773Z,54.72
2023-04-26T22:54:38.270Z,54.11
2023-04-26T22:57:04.588Z,53.35
2023-04-26T22:59:30.899Z,53.32
2023-04-26T23:01:57.233Z,52.82
2023-04-26T23:04:23.600Z,52.67
2023-04-26T23:06:49.929Z,52.30
2023-04-26T23:09:16.264Z,52.49
2023-04-26T23:11:42.592Z,51.69
2023-04-26T23:14:08.909Z,51.60
2023-04-26T23:16:35.305Z,51.63
2023-04-26T23:19:01.652Z,51.13
2023-04-26T23:21:27.975Z,51.36
2023-04-26T23:23:54.283Z,51.58
2023-04-26T23:26:20.583Z,52.37
2023-04-26T23:28:46.901Z,52.65
2023-04-26T23:31:13.221Z,53.39
2023-04-26T23:33:39.533Z,54.07
2023-04-26T23:36:05.855Z,53.86
2023-04-26T23:38:32.197Z,54.38
2023-04-26T23:40:58.506Z,53.91
2023-04-26T23:43:24.817Z,53.59
2023-04-26T23:45:51.392Z,53.29
2023-04-26T23:48:17.756Z,53.24
2023-04-26T23:50:44.085Z,53.18
2023-04-26T23:53:10.398Z,53.94
2023-04-26T23:55:36.717Z,53.73
2023-04-26T23:58:03.022Z,53.14
